Warnsveld, Netherlands
Current Conditions -  °F | °C
As of 8:25 AM on Sunday 23 Nov 2014 (Local Time) from EHDL Reporting Station
Haze Haze  
Wind Chill: 44°   Ceiling: 10000
Heat Index: 46°   Visibility: 5mi
Dew Point: 45°   Wind: 6mph
Humidity: 93%   Direction: 150°SSE
Pressure: 30.03"   Gusts: NA
Location:  52.14°N, 6.23°E
Report Text: EHDL 230725Z AUTO 15005KT 8000 BR BKN100 08/07 Q1017 BLU
Loading
Personal Weather Stations






























Interactive Weather Map New forecast layout! Learn more

10-Day Weather Forecast

Advertisements
Track Severe Weather on mobile